sensor_id;sensor_type;location;lat;lon;timestamp;pressure;altitude;pressure_sealevel;temperature;humidity
68758;BME280;55747;51.998;4.466;2022-10-16T00:01:23;56564.69;;;-144.48;68.03
68758;BME280;55747;51.998;4.466;2022-10-16T00:03:49;56585.34;;;-144.48;67.65
68758;BME280;55747;51.998;4.466;2022-10-16T00:06:16;56591.56;;;-144.48;67.68
68758;BME280;55747;51.998;4.466;2022-10-16T00:08:42;56589.50;;;-144.48;67.95
68758;BME280;55747;51.998;4.466;2022-10-16T00:11:10;56589.50;;;-144.48;67.57
68758;BME280;55747;51.998;4.466;2022-10-16T00:13:38;56558.47;;;-144.48;67.19
68758;BME280;55747;51.998;4.466;2022-10-16T00:16:05;56583.28;;;-144.48;67.26
68758;BME280;55747;51.998;4.466;2022-10-16T00:18:31;56614.31;;;-144.48;67.24
68758;BME280;55747;51.998;4.466;2022-10-16T00:21:03;56591.56;;;-144.48;67.09
68758;BME280;55747;51.998;4.466;2022-10-16T00:23:28;56560.53;;;-144.48;66.33
68758;BME280;55747;51.998;4.466;2022-10-16T00:25:58;56595.69;;;-144.48;66.44
68758;BME280;55747;51.998;4.466;2022-10-16T00:28:25;56566.75;;;-144.48;66.66
68758;BME280;55747;51.998;4.466;2022-10-16T00:30:50;56554.34;;;-144.48;66.79
68758;BME280;55747;51.998;4.466;2022-10-16T00:33:19;56556.41;;;-144.48;67.26
68758;BME280;55747;51.998;4.466;2022-10-16T00:35:45;56587.41;;;-144.48;67.29
68758;BME280;55747;51.998;4.466;2022-10-16T00:38:10;56601.91;;;-144.48;67.23
68758;BME280;55747;51.998;4.466;2022-10-16T00:40:36;56554.34;;;-144.48;67.01
68758;BME280;55747;51.998;4.466;2022-10-16T00:43:04;56550.22;;;-144.48;67.19
68758;BME280;55747;51.998;4.466;2022-10-16T00:45:33;56577.09;;;-144.48;67.76
68758;BME280;55747;51.998;4.466;2022-10-16T00:47:59;56585.34;;;-144.48;68.33
68758;BME280;55747;51.998;4.466;2022-10-16T00:50:29;56544.00;;;-144.48;68.90
68758;BME280;55747;51.998;4.466;2022-10-16T00:52:55;56539.88;;;-144.48;69.62
68758;BME280;55747;51.998;4.466;2022-10-16T00:55:22;56568.81;;;-144.48;69.94
68758;BME280;55747;51.998;4.466;2022-10-16T00:57:48;56577.09;;;-144.48;70.80
68758;BME280;55747;51.998;4.466;2022-10-16T01:00:18;56546.06;;;-144.48;71.48
68758;BME280;55747;51.998;4.466;2022-10-16T01:02:44;56599.81;;;-144.48;72.38
68758;BME280;55747;51.998;4.466;2022-10-16T01:05:09;56579.16;;;-144.48;73.20
68758;BME280;55747;51.998;4.466;2022-10-16T01:08:06;56601.91;;;-144.48;74.18
68758;BME280;55747;51.998;4.466;2022-10-16T01:10:35;56593.63;;;-144.48;75.36
68758;BME280;55747;51.998;4.466;2022-10-16T01:13:18;56568.81;;;-144.48;76.51
68758;BME280;55747;51.998;4.466;2022-10-16T01:16:09;56566.75;;;-144.48;77.17
68758;BME280;55747;51.998;4.466;2022-10-16T01:18:41;56610.16;;;-144.48;77.97
68758;BME280;55747;51.998;4.466;2022-10-16T01:21:10;56581.22;;;-144.48;78.37
68758;BME280;55747;51.998;4.466;2022-10-16T01:27:50;56612.22;;;-144.48;78.83
68758;BME280;55747;51.998;4.466;2022-10-16T01:29:57;56581.22;;;-144.48;79.62
68758;BME280;55747;51.998;4.466;2022-10-16T01:35:54;56595.69;;;-144.48;80.14
68758;BME280;55747;51.998;4.466;2022-10-16T01:38:35;56575.03;;;-144.48;80.64
68758;BME280;55747;51.998;4.466;2022-10-16T01:41:26;56612.22;;;-144.48;80.64
68758;BME280;55747;51.998;4.466;2022-10-16T01:44:04;56591.56;;;-144.48;80.89
68758;BME280;55747;51.998;4.466;2022-10-16T01:46:31;56595.69;;;-144.48;80.92
68758;BME280;55747;51.998;4.466;2022-10-16T01:48:59;56583.28;;;-144.48;80.73
68758;BME280;55747;51.998;4.466;2022-10-16T01:51:26;56583.28;;;-144.48;80.51
68758;BME280;55747;51.998;4.466;2022-10-16T01:53:55;56649.44;;;-144.48;80.54
68758;BME280;55747;51.998;4.466;2022-10-16T01:56:24;56585.34;;;-144.48;80.57
68758;BME280;55747;51.998;4.466;2022-10-16T01:59:12;56608.09;;;-144.48;80.21
68758;BME280;55747;51.998;4.466;2022-10-16T02:01:40;56603.97;;;-144.48;80.09
68758;BME280;55747;51.998;4.466;2022-10-16T02:04:29;56593.63;;;-144.48;80.48
68758;BME280;55747;51.998;4.466;2022-10-16T02:06:56;56591.56;;;-144.48;80.16
68758;BME280;55747;51.998;4.466;2022-10-16T02:09:21;56587.41;;;-144.48;79.84
68758;BME280;55747;51.998;4.466;2022-10-16T02:11:46;56564.69;;;-144.48;79.72
68758;BME280;55747;51.998;4.466;2022-10-16T02:14:14;56570.88;;;-144.48;79.61
68758;BME280;55747;51.998;4.466;2022-10-16T02:16:46;56589.50;;;-144.48;79.53
68758;BME280;55747;51.998;4.466;2022-10-16T02:19:16;56601.91;;;-144.48;79.75
68758;BME280;55747;51.998;4.466;2022-10-16T02:21:54;56614.31;;;-144.48;79.83
68758;BME280;55747;51.998;4.466;2022-10-16T02:30:19;56585.34;;;-144.48;79.59
68758;BME280;55747;51.998;4.466;2022-10-16T02:32:47;56645.31;;;-144.48;79.70
68758;BME280;55747;51.998;4.466;2022-10-16T02:35:17;56616.38;;;-144.48;79.73
68758;BME280;55747;51.998;4.466;2022-10-16T02:37:44;56585.34;;;-144.48;79.82
68758;BME280;55747;51.998;4.466;2022-10-16T02:40:10;56585.34;;;-144.48;79.93
68758;BME280;55747;51.998;4.466;2022-10-16T02:42:38;56601.91;;;-144.48;79.72
68758;BME280;55747;51.998;4.466;2022-10-16T02:45:05;56626.72;;;-144.48;79.66
68758;BME280;55747;51.998;4.466;2022-10-16T02:47:31;56612.22;;;-144.48;79.75
68758;BME280;55747;51.998;4.466;2022-10-16T02:49:56;56583.28;;;-144.48;80.38
68758;BME280;55747;51.998;4.466;2022-10-16T02:52:24;56610.16;;;-144.48;80.69
68758;BME280;55747;51.998;4.466;2022-10-16T02:54:49;56597.75;;;-144.48;80.97
68758;BME280;55747;51.998;4.466;2022-10-16T02:57:14;56606.03;;;-144.48;81.08
68758;BME280;55747;51.998;4.466;2022-10-16T02:59:40;56587.41;;;-144.48;81.38
68758;BME280;55747;51.998;4.466;2022-10-16T03:02:05;56593.63;;;-144.48;81.43
68758;BME280;55747;51.998;4.466;2022-10-16T03:04:30;56608.09;;;-144.48;81.40
68758;BME280;55747;51.998;4.466;2022-10-16T03:06:56;56608.09;;;-144.48;81.56
68758;BME280;55747;51.998;4.466;2022-10-16T03:09:21;56552.28;;;-144.48;81.43
68758;BME280;55747;51.998;4.466;2022-10-16T03:11:49;56641.19;;;-144.48;81.46
68758;BME280;55747;51.998;4.466;2022-10-16T03:14:15;56606.03;;;-144.48;82.03
68758;BME280;55747;51.998;4.466;2022-10-16T03:16:40;56581.22;;;-144.48;81.99
68758;BME280;55747;51.998;4.466;2022-10-16T03:19:05;56583.28;;;-144.48;82.17
68758;BME280;55747;51.998;4.466;2022-10-16T03:21:31;56591.56;;;-144.48;82.27
68758;BME280;55747;51.998;4.466;2022-10-16T03:23:56;56601.91;;;-144.48;81.86
68758;BME280;55747;51.998;4.466;2022-10-16T03:26:22;56622.56;;;-144.48;81.65
68758;BME280;55747;51.998;4.466;2022-10-16T03:28:47;56599.81;;;-144.48;81.43
68758;BME280;55747;51.998;4.466;2022-10-16T03:31:12;56579.16;;;-144.48;81.20
68758;BME280;55747;51.998;4.466;2022-10-16T03:33:37;56618.44;;;-144.48;81.10
68758;BME280;55747;51.998;4.466;2022-10-16T03:36:03;56581.22;;;-144.48;80.32
68758;BME280;55747;51.998;4.466;2022-10-16T03:38:29;56593.63;;;-144.48;80.00
68758;BME280;55747;51.998;4.466;2022-10-16T03:40:54;56601.91;;;-144.48;79.87
68758;BME280;55747;51.998;4.466;2022-10-16T03:43:19;56577.09;;;-144.48;79.53
68758;BME280;55747;51.998;4.466;2022-10-16T03:45:45;56601.91;;;-144.48;79.71
68758;BME280;55747;51.998;4.466;2022-10-16T03:48:10;56595.69;;;-144.48;79.53
68758;BME280;55747;51.998;4.466;2022-10-16T03:50:35;56606.03;;;-144.48;79.42
68758;BME280;55747;51.998;4.466;2022-10-16T03:53:01;56585.34;;;-144.48;79.40
68758;BME280;55747;51.998;4.466;2022-10-16T03:55:26;56595.69;;;-144.48;79.81
68758;BME280;55747;51.998;4.466;2022-10-16T03:57:52;56624.63;;;-144.48;80.09
68758;BME280;55747;51.998;4.466;2022-10-16T04:00:17;56637.03;;;-144.48;80.41
68758;BME280;55747;51.998;4.466;2022-10-16T04:02:42;56593.63;;;-144.48;80.73
68758;BME280;55747;51.998;4.466;2022-10-16T04:05:08;56612.22;;;-144.48;80.93
68758;BME280;55747;51.998;4.466;2022-10-16T04:07:33;56599.81;;;-144.48;80.97
68758;BME280;55747;51.998;4.466;2022-10-16T04:09:59;56603.97;;;-144.48;81.03
68758;BME280;55747;51.998;4.466;2022-10-16T04:12:25;56608.09;;;-144.48;81.32
68758;BME280;55747;51.998;4.466;2022-10-16T04:14:50;56599.81;;;-144.48;81.33
68758;BME280;55747;51.998;4.466;2022-10-16T04:17:18;56624.63;;;-144.48;81.32
68758;BME280;55747;51.998;4.466;2022-10-16T04:19:44;56612.22;;;-144.48;81.84
68758;BME280;55747;51.998;4.466;2022-10-16T04:22:09;56572.94;;;-144.48;82.00
68758;BME280;55747;51.998;4.466;2022-10-16T04:24:34;56568.81;;;-144.48;81.70
68758;BME280;55747;51.998;4.466;2022-10-16T04:27:02;56591.56;;;-144.48;82.09
68758;BME280;55747;51.998;4.466;2022-10-16T04:29:27;56628.78;;;-144.48;82.17
68758;BME280;55747;51.998;4.466;2022-10-16T04:31:53;56618.44;;;-144.48;82.43
68758;BME280;55747;51.998;4.466;2022-10-16T04:34:18;56579.16;;;-144.48;83.14
68758;BME280;55747;51.998;4.466;2022-10-16T04:36:43;56610.16;;;-144.48;83.22
68758;BME280;55747;51.998;4.466;2022-10-16T04:39:09;56603.97;;;-144.48;83.48
68758;BME280;55747;51.998;4.466;2022-10-16T04:41:34;56606.03;;;-144.48;83.56
68758;BME280;55747;51.998;4.466;2022-10-16T04:43:59;56610.16;;;-144.48;83.59
68758;BME280;55747;51.998;4.466;2022-10-16T04:46:25;56608.09;;;-144.48;83.40
68758;BME280;55747;51.998;4.466;2022-10-16T04:48:50;56591.56;;;-144.48;83.11
68758;BME280;55747;51.998;4.466;2022-10-16T04:51:16;56634.97;;;-144.48;83.15
68758;BME280;55747;51.998;4.466;2022-10-16T04:53:41;56622.56;;;-144.48;82.98
68758;BME280;55747;51.998;4.466;2022-10-16T04:56:06;56620.50;;;-144.48;82.96
68758;BME280;55747;51.998;4.466;2022-10-16T04:58:32;56641.19;;;-144.48;82.71
68758;BME280;55747;51.998;4.466;2022-10-16T05:01:00;56616.38;;;-144.48;82.90
68758;BME280;55747;51.998;4.466;2022-10-16T05:03:25;56620.50;;;-144.48;82.69
68758;BME280;55747;51.998;4.466;2022-10-16T05:05:51;56610.16;;;-144.48;82.57
68758;BME280;55747;51.998;4.466;2022-10-16T05:08:16;56616.38;;;-144.48;82.30
68758;BME280;55747;51.998;4.466;2022-10-16T05:10:42;56603.97;;;-144.48;82.19
68758;BME280;55747;51.998;4.466;2022-10-16T05:13:08;56624.63;;;-144.48;82.62
68758;BME280;55747;51.998;4.466;2022-10-16T05:15:36;56622.56;;;-144.48;82.75
68758;BME280;55747;51.998;4.466;2022-10-16T05:18:01;56583.28;;;-144.48;83.48
68758;BME280;55747;51.998;4.466;2022-10-16T05:20:27;56606.03;;;-144.48;84.32
68758;BME280;55747;51.998;4.466;2022-10-16T05:22:52;56614.31;;;-144.48;84.73
68758;BME280;55747;51.998;4.466;2022-10-16T05:25:17;56632.91;;;-144.48;85.42
68758;BME280;55747;51.998;4.466;2022-10-16T05:27:46;56595.69;;;-144.48;86.05
68758;BME280;55747;51.998;4.466;2022-10-16T05:30:16;56606.03;;;-144.48;87.08
68758;BME280;55747;51.998;4.466;2022-10-16T05:32:45;56614.31;;;-144.48;87.62
68758;BME280;55747;51.998;4.466;2022-10-16T05:35:11;56606.03;;;-144.48;88.61
68758;BME280;55747;51.998;4.466;2022-10-16T05:37:36;56622.56;;;-144.48;89.52
68758;BME280;55747;51.998;4.466;2022-10-16T05:40:02;56622.56;;;-144.48;89.94
68758;BME280;55747;51.998;4.466;2022-10-16T05:42:30;56620.50;;;-144.48;90.38
68758;BME280;55747;51.998;4.466;2022-10-16T05:44:55;56593.63;;;-144.48;90.64
68758;BME280;55747;51.998;4.466;2022-10-16T05:47:20;56624.63;;;-144.48;90.71
68758;BME280;55747;51.998;4.466;2022-10-16T05:49:46;56593.63;;;-144.48;90.75
68758;BME280;55747;51.998;4.466;2022-10-16T05:52:11;56587.41;;;-144.48;90.59
68758;BME280;55747;51.998;4.466;2022-10-16T05:54:36;56608.09;;;-144.48;90.38
68758;BME280;55747;51.998;4.466;2022-10-16T05:57:02;56616.38;;;-144.48;89.94
68758;BME280;55747;51.998;4.466;2022-10-16T05:59:27;56587.41;;;-144.48;89.53
68758;BME280;55747;51.998;4.466;2022-10-16T06:01:52;56616.38;;;-144.48;88.88
68758;BME280;55747;51.998;4.466;2022-10-16T06:04:18;56603.97;;;-144.48;88.59
68758;BME280;55747;51.998;4.466;2022-10-16T06:06:43;56643.25;;;-144.48;88.38
68758;BME280;55747;51.998;4.466;2022-10-16T06:09:14;56570.88;;;-144.48;87.83
68758;BME280;55747;51.998;4.466;2022-10-16T06:11:40;56614.31;;;-144.48;86.92
68758;BME280;55747;51.998;4.466;2022-10-16T06:14:08;56603.97;;;-144.48;86.56
68758;BME280;55747;51.998;4.466;2022-10-16T06:16:35;56614.31;;;-144.48;86.06
68758;BME280;55747;51.998;4.466;2022-10-16T06:19:01;56597.75;;;-144.48;85.99
68758;BME280;55747;51.998;4.466;2022-10-16T06:21:46;56616.38;;;-144.48;85.17
68758;BME280;55747;51.998;4.466;2022-10-16T06:24:12;56616.38;;;-144.48;84.07
68758;BME280;55747;51.998;4.466;2022-10-16T06:26:44;56608.09;;;-144.48;83.11
68758;BME280;55747;51.998;4.466;2022-10-16T06:29:10;56583.28;;;-144.48;82.54
68758;BME280;55747;51.998;4.466;2022-10-16T06:31:35;56603.97;;;-144.48;82.27
68758;BME280;55747;51.998;4.466;2022-10-16T06:34:10;56634.97;;;-144.48;81.49
68758;BME280;55747;51.998;4.466;2022-10-16T06:53:42;56593.63;;;-144.48;83.76
68758;BME280;55747;51.998;4.466;2022-10-16T07:13:44;56577.09;;;-144.48;83.95
68758;BME280;55747;51.998;4.466;2022-10-16T07:16:37;56593.63;;;-144.48;83.71
68758;BME280;55747;51.998;4.466;2022-10-16T07:19:22;56603.97;;;-144.48;83.77
68758;BME280;55747;51.998;4.466;2022-10-16T07:22:04;56620.50;;;-144.48;83.42
68758;BME280;55747;51.998;4.466;2022-10-16T07:24:43;56612.22;;;-144.48;83.29
68758;BME280;55747;51.998;4.466;2022-10-16T07:27:11;56622.56;;;-144.48;83.25
68758;BME280;55747;51.998;4.466;2022-10-16T07:29:39;56593.63;;;-144.48;83.18
68758;BME280;55747;51.998;4.466;2022-10-16T07:32:14;56612.22;;;-144.48;82.81
68758;BME280;55747;51.998;4.466;2022-10-16T08:06:06;56612.22;;;-144.48;79.45
68758;BME280;55747;51.998;4.466;2022-10-16T08:12:48;56595.69;;;-144.48;79.19
68758;BME280;55747;51.998;4.466;2022-10-16T08:16:13;56589.50;;;-144.48;76.94
68758;BME280;55747;51.998;4.466;2022-10-16T08:19:21;56603.97;;;-144.48;73.27
68758;BME280;55747;51.998;4.466;2022-10-16T08:28:54;56568.81;;;-144.48;66.31
68758;BME280;55747;51.998;4.466;2022-10-16T08:31:43;56558.47;;;-144.48;64.73
68758;BME280;55747;51.998;4.466;2022-10-16T08:34:43;56564.69;;;-144.48;62.80
68758;BME280;55747;51.998;4.466;2022-10-16T08:37:30;56537.81;;;-144.48;62.04
68758;BME280;55747;51.998;4.466;2022-10-16T08:40:16;56531.59;;;-144.48;60.89
68758;BME280;55747;51.998;4.466;2022-10-16T08:54:58;56527.47;;;-144.48;58.28
68758;BME280;55747;51.998;4.466;2022-10-16T08:57:32;56546.06;;;-144.48;58.98
68758;BME280;55747;51.998;4.466;2022-10-16T09:00:18;56548.13;;;-144.48;58.36
68758;BME280;55747;51.998;4.466;2022-10-16T09:02:55;56513.00;;;-144.48;56.43
68758;BME280;55747;51.998;4.466;2022-10-16T09:05:47;56533.66;;;-144.48;58.07
68758;BME280;55747;51.998;4.466;2022-10-16T09:21:09;56517.13;;;-144.48;55.93
68758;BME280;55747;51.998;4.466;2022-10-16T09:23:38;56508.84;;;-144.48;54.71
68758;BME280;55747;51.998;4.466;2022-10-16T09:26:11;56504.72;;;-144.48;53.68
68758;BME280;55747;51.998;4.466;2022-10-16T09:28:41;56510.94;;;-144.48;54.40
68758;BME280;55747;51.998;4.466;2022-10-16T09:31:14;56515.06;;;-144.48;55.16
68758;BME280;55747;51.998;4.466;2022-10-16T09:33:48;56523.34;;;-144.48;55.38
68758;BME280;55747;51.998;4.466;2022-10-16T09:36:16;56533.66;;;-144.48;56.81
68758;BME280;55747;51.998;4.466;2022-10-16T09:38:44;56500.59;;;-144.48;56.76
68758;BME280;55747;51.998;4.466;2022-10-16T09:41:21;56504.72;;;-144.48;56.36
68758;BME280;55747;51.998;4.466;2022-10-16T09:43:48;56529.53;;;-144.48;55.72
68758;BME280;55747;51.998;4.466;2022-10-16T09:48:50;56486.13;;;-144.48;55.60
68758;BME280;55747;51.998;4.466;2022-10-16T09:51:24;56523.34;;;-144.48;55.98
68758;BME280;55747;51.998;4.466;2022-10-16T09:53:58;56484.06;;;-144.48;54.45
68758;BME280;55747;51.998;4.466;2022-10-16T09:56:30;56469.56;;;-144.48;54.07
68758;BME280;55747;51.998;4.466;2022-10-16T09:59:00;56481.97;;;-144.48;51.49
68758;BME280;55747;51.998;4.466;2022-10-16T10:01:38;56490.25;;;-144.48;53.14
68758;BME280;55747;51.998;4.466;2022-10-16T10:04:04;56500.59;;;-144.48;54.13
68758;BME280;55747;51.998;4.466;2022-10-16T10:06:36;56494.38;;;-144.48;51.16
68758;BME280;55747;51.998;4.466;2022-10-16T10:09:15;56471.66;;;-144.48;49.90
68758;BME280;55747;51.998;4.466;2022-10-16T10:11:54;56473.72;;;-144.48;50.67
68758;BME280;55747;51.998;4.466;2022-10-16T10:14:23;56459.25;;;-144.48;50.35
68758;BME280;55747;51.998;4.466;2022-10-16T10:16:51;56494.38;;;-144.48;52.17
68758;BME280;55747;51.998;4.466;2022-10-16T10:19:22;56481.97;;;-144.48;55.07
68758;BME280;55747;51.998;4.466;2022-10-16T10:21:50;56496.44;;;-144.48;52.53
68758;BME280;55747;51.998;4.466;2022-10-16T10:24:19;56496.44;;;-144.48;51.36
68758;BME280;55747;51.998;4.466;2022-10-16T10:27:00;56500.59;;;-144.48;51.63
68758;BME280;55747;51.998;4.466;2022-10-16T10:32:56;56471.66;;;-144.48;51.45
68758;BME280;55747;51.998;4.466;2022-10-16T10:35:38;56486.13;;;-144.48;50.82
68758;BME280;55747;51.998;4.466;2022-10-16T10:38:34;56469.56;;;-144.48;49.97
68758;BME280;55747;51.998;4.466;2022-10-16T10:41:26;56422.03;;;-144.48;48.18
68758;BME280;55747;51.998;4.466;2022-10-16T10:46:57;56448.91;;;-144.48;48.57
68758;BME280;55747;51.998;4.466;2022-10-16T11:06:17;56440.63;;;-144.48;45.96
68758;BME280;55747;51.998;4.466;2022-10-16T11:08:58;56440.63;;;-144.48;46.24
68758;BME280;55747;51.998;4.466;2022-10-16T11:11:44;56455.09;;;-144.48;46.06
68758;BME280;55747;51.998;4.466;2022-10-16T11:16:40;56475.78;;;-144.48;45.15
68758;BME280;55747;51.998;4.466;2022-10-16T11:19:45;56391.00;;;-144.48;43.50
68758;BME280;55747;51.998;4.466;2022-10-16T11:22:30;56461.31;;;-144.48;44.72
68758;BME280;55747;51.998;4.466;2022-10-16T11:25:20;56450.97;;;-144.48;48.81
68758;BME280;55747;51.998;4.466;2022-10-16T11:30:24;56465.44;;;-144.48;45.08
68758;BME280;55747;51.998;4.466;2022-10-16T11:35:39;56496.44;;;-144.48;46.89
68758;BME280;55747;51.998;4.466;2022-10-16T11:38:14;56469.56;;;-144.48;46.24
68758;BME280;55747;51.998;4.466;2022-10-16T11:40:42;56453.03;;;-144.48;44.21
68758;BME280;55747;51.998;4.466;2022-10-16T11:43:15;56422.03;;;-144.48;43.12
68758;BME280;55747;51.998;4.466;2022-10-16T11:45:48;56440.63;;;-144.48;43.76
68758;BME280;55747;51.998;4.466;2022-10-16T11:48:29;56442.69;;;-144.48;43.62
68758;BME280;55747;51.998;4.466;2022-10-16T11:51:02;56440.63;;;-144.48;43.51
68758;BME280;55747;51.998;4.466;2022-10-16T11:53:51;56479.91;;;-144.48;44.71
68758;BME280;55747;51.998;4.466;2022-10-16T11:56:20;56469.56;;;-144.48;45.12
68758;BME280;55747;51.998;4.466;2022-10-16T12:01:43;56422.03;;;-144.48;44.41
68758;BME280;55747;51.998;4.466;2022-10-16T12:07:03;56428.22;;;-144.48;41.08
68758;BME280;55747;51.998;4.466;2022-10-16T12:09:31;56403.41;;;-144.48;40.08
68758;BME280;55747;51.998;4.466;2022-10-16T12:11:58;56415.81;;;-144.48;40.76
68758;BME280;55747;51.998;4.466;2022-10-16T12:17:04;56471.66;;;-144.48;43.62
68758;BME280;55747;51.998;4.466;2022-10-16T12:20:01;56411.69;;;-144.48;44.54
68758;BME280;55747;51.998;4.466;2022-10-16T12:22:42;56459.25;;;-144.48;45.43
68758;BME280;55747;51.998;4.466;2022-10-16T12:25:41;56465.44;;;-144.48;46.51
68758;BME280;55747;51.998;4.466;2022-10-16T12:30:40;56436.50;;;-144.48;46.73
68758;BME280;55747;51.998;4.466;2022-10-16T12:33:21;56450.97;;;-144.48;46.62
68758;BME280;55747;51.998;4.466;2022-10-16T12:35:47;56479.91;;;-144.48;46.67
68758;BME280;55747;51.998;4.466;2022-10-16T12:38:21;56401.34;;;-144.48;44.98
68758;BME280;55747;51.998;4.466;2022-10-16T12:41:08;56415.81;;;-144.48;42.70
68758;BME280;55747;51.998;4.466;2022-10-16T12:43:45;56409.63;;;-144.48;43.90
68758;BME280;55747;51.998;4.466;2022-10-16T12:48:41;56430.28;;;-144.48;42.67
68758;BME280;55747;51.998;4.466;2022-10-16T12:54:12;56440.63;;;-144.48;41.34
68758;BME280;55747;51.998;4.466;2022-10-16T12:56:50;56399.28;;;-144.48;42.99
68758;BME280;55747;51.998;4.466;2022-10-16T13:02:16;56442.69;;;-144.48;44.54
68758;BME280;55747;51.998;4.466;2022-10-16T13:05:15;56442.69;;;-144.48;45.80
68758;BME280;55747;51.998;4.466;2022-10-16T13:10:30;56440.63;;;-144.48;46.83
68758;BME280;55747;51.998;4.466;2022-10-16T13:19:24;56481.97;;;-144.48;47.77
68758;BME280;55747;51.998;4.466;2022-10-16T13:27:39;56484.06;;;-144.48;47.13
68758;BME280;55747;51.998;4.466;2022-10-16T13:30:13;56436.50;;;-144.48;48.03
68758;BME280;55747;51.998;4.466;2022-10-16T13:32:44;56467.50;;;-144.48;46.78
68758;BME280;55747;51.998;4.466;2022-10-16T13:35:26;56405.50;;;-144.48;47.20
68758;BME280;55747;51.998;4.466;2022-10-16T13:38:03;56444.78;;;-144.48;48.69
68758;BME280;55747;51.998;4.466;2022-10-16T13:40:28;56424.09;;;-144.48;48.65
68758;BME280;55747;51.998;4.466;2022-10-16T13:42:59;56450.97;;;-144.48;48.05
68758;BME280;55747;51.998;4.466;2022-10-16T13:45:25;56424.09;;;-144.48;48.70
68758;BME280;55747;51.998;4.466;2022-10-16T13:48:05;56467.50;;;-144.48;49.34
68758;BME280;55747;51.998;4.466;2022-10-16T13:50:31;56498.53;;;-144.48;49.21
68758;BME280;55747;51.998;4.466;2022-10-16T13:53:23;56467.50;;;-144.48;50.43
68758;BME280;55747;51.998;4.466;2022-10-16T13:55:54;56459.25;;;-144.48;50.94
68758;BME280;55747;51.998;4.466;2022-10-16T13:58:25;56457.19;;;-144.48;51.20
68758;BME280;55747;51.998;4.466;2022-10-16T14:03:31;56471.66;;;-144.48;50.58
68758;BME280;55747;51.998;4.466;2022-10-16T14:06:01;56430.28;;;-144.48;52.11
68758;BME280;55747;51.998;4.466;2022-10-16T14:08:29;56455.09;;;-144.48;52.00
68758;BME280;55747;51.998;4.466;2022-10-16T14:10:58;56434.44;;;-144.48;51.72
68758;BME280;55747;51.998;4.466;2022-10-16T14:13:32;56463.38;;;-144.48;51.67
68758;BME280;55747;51.998;4.466;2022-10-16T14:16:19;56436.50;;;-144.48;52.16
68758;BME280;55747;51.998;4.466;2022-10-16T14:19:21;56450.97;;;-144.48;52.66
68758;BME280;55747;51.998;4.466;2022-10-16T14:21:54;56484.06;;;-144.48;53.84
68758;BME280;55747;51.998;4.466;2022-10-16T14:24:40;56461.31;;;-144.48;54.27
68758;BME280;55747;51.998;4.466;2022-10-16T14:27:29;56453.03;;;-144.48;54.79
68758;BME280;55747;51.998;4.466;2022-10-16T14:38:32;56471.66;;;-144.48;54.23
68758;BME280;55747;51.998;4.466;2022-10-16T14:41:00;56477.84;;;-144.48;54.81
68758;BME280;55747;51.998;4.466;2022-10-16T14:43:39;56432.38;;;-144.48;54.93
68758;BME280;55747;51.998;4.466;2022-10-16T14:46:22;56457.19;;;-144.48;54.91
68758;BME280;55747;51.998;4.466;2022-10-16T14:51:55;56496.44;;;-144.48;55.63
68758;BME280;55747;51.998;4.466;2022-10-16T14:54:21;56442.69;;;-144.48;55.61
68758;BME280;55747;51.998;4.466;2022-10-16T14:56:48;56467.50;;;-144.48;55.46
68758;BME280;55747;51.998;4.466;2022-10-16T14:59:19;56467.50;;;-144.48;54.56
68758;BME280;55747;51.998;4.466;2022-10-16T15:01:46;56463.38;;;-144.48;55.07
68758;BME280;55747;51.998;4.466;2022-10-16T15:04:12;56481.97;;;-144.48;54.72
68758;BME280;55747;51.998;4.466;2022-10-16T15:41:12;56479.91;;;-144.48;57.83
68758;BME280;55747;51.998;4.466;2022-10-16T15:43:40;56438.56;;;-144.48;57.83
68758;BME280;55747;51.998;4.466;2022-10-16T15:46:08;56481.97;;;-144.48;58.27
68758;BME280;55747;51.998;4.466;2022-10-16T15:48:35;56477.84;;;-144.48;59.04
68758;BME280;55747;51.998;4.466;2022-10-16T15:51:05;56475.78;;;-144.48;59.69
68758;BME280;55747;51.998;4.466;2022-10-16T15:53:30;56492.31;;;-144.48;59.75
68758;BME280;55747;51.998;4.466;2022-10-16T15:55:56;56471.66;;;-144.48;59.72
68758;BME280;55747;51.998;4.466;2022-10-16T15:58:21;56465.44;;;-144.48;59.75
68758;BME280;55747;51.998;4.466;2022-10-16T16:00:54;56502.66;;;-144.48;60.04
68758;BME280;55747;51.998;4.466;2022-10-16T16:03:20;56508.84;;;-144.48;59.87
68758;BME280;55747;51.998;4.466;2022-10-16T16:05:45;56453.03;;;-144.48;60.58
68758;BME280;55747;51.998;4.466;2022-10-16T16:08:11;56473.72;;;-144.48;60.68
68758;BME280;55747;51.998;4.466;2022-10-16T16:10:36;56508.84;;;-144.48;60.54
68758;BME280;55747;51.998;4.466;2022-10-16T16:13:01;56434.44;;;-144.48;60.65
68758;BME280;55747;51.998;4.466;2022-10-16T16:15:27;56473.72;;;-144.48;60.93
68758;BME280;55747;51.998;4.466;2022-10-16T16:17:52;56490.25;;;-144.48;60.97
68758;BME280;55747;51.998;4.466;2022-10-16T16:20:17;56496.44;;;-144.48;61.60
68758;BME280;55747;51.998;4.466;2022-10-16T16:22:43;56488.19;;;-144.48;62.50
68758;BME280;55747;51.998;4.466;2022-10-16T16:25:08;56481.97;;;-144.48;63.03
68758;BME280;55747;51.998;4.466;2022-10-16T16:27:34;56486.13;;;-144.48;63.53
68758;BME280;55747;51.998;4.466;2022-10-16T16:30:06;56479.91;;;-144.48;64.22
68758;BME280;55747;51.998;4.466;2022-10-16T16:32:38;56488.19;;;-144.48;64.42
68758;BME280;55747;51.998;4.466;2022-10-16T16:52:13;56455.09;;;-144.48;65.46
68758;BME280;55747;51.998;4.466;2022-10-16T17:33:47;56481.97;;;-144.48;69.43
68758;BME280;55747;51.998;4.466;2022-10-16T17:39:53;56457.19;;;-144.48;69.87
68758;BME280;55747;51.998;4.466;2022-10-16T17:42:18;56502.66;;;-144.48;70.04
68758;BME280;55747;51.998;4.466;2022-10-16T17:44:43;56444.78;;;-144.48;69.70
68758;BME280;55747;51.998;4.466;2022-10-16T17:47:11;56506.78;;;-144.48;69.88
68758;BME280;55747;51.998;4.466;2022-10-16T17:50:00;56459.25;;;-144.48;69.60
68758;BME280;55747;51.998;4.466;2022-10-16T17:52:33;56513.00;;;-144.48;69.54